sensor_id;sensor_type;location;lat;lon;timestamp;temperature;humidity
31799;DHT22;18374;51.136;3.502;2022-08-03T00:00:29;20.80;99.90
31799;DHT22;18374;51.136;3.502;2022-08-03T00:02:57;20.80;99.90
31799;DHT22;18374;51.136;3.502;2022-08-03T00:05:25;20.80;99.90
31799;DHT22;18374;51.136;3.502;2022-08-03T00:07:52;20.80;99.90
31799;DHT22;18374;51.136;3.502;2022-08-03T00:10:20;20.70;99.90
31799;DHT22;18374;51.136;3.502;2022-08-03T00:12:48;20.60;99.90
31799;DHT22;18374;51.136;3.502;2022-08-03T00:15:15;20.60;99.90
31799;DHT22;18374;51.136;3.502;2022-08-03T00:17:44;20.50;99.90
31799;DHT22;18374;51.136;3.502;2022-08-03T00:20:20;20.50;99.90
31799;DHT22;18374;51.136;3.502;2022-08-03T00:22:48;20.50;99.90
31799;DHT22;18374;51.136;3.502;2022-08-03T00:25:19;20.50;99.90
31799;DHT22;18374;51.136;3.502;2022-08-03T00:27:47;20.50;99.90
31799;DHT22;18374;51.136;3.502;2022-08-03T00:30:17;20.50;99.90
31799;DHT22;18374;51.136;3.502;2022-08-03T00:32:46;20.50;99.90
31799;DHT22;18374;51.136;3.502;2022-08-03T00:35:14;20.50;99.90
31799;DHT22;18374;51.136;3.502;2022-08-03T00:38:02;20.50;99.90
31799;DHT22;18374;51.136;3.502;2022-08-03T00:40:31;20.40;99.90
31799;DHT22;18374;51.136;3.502;2022-08-03T00:43:01;20.40;99.90
31799;DHT22;18374;51.136;3.502;2022-08-03T00:45:38;20.40;99.90
31799;DHT22;18374;51.136;3.502;2022-08-03T00:48:08;20.30;99.90
31799;DHT22;18374;51.136;3.502;2022-08-03T00:50:57;20.30;99.90
31799;DHT22;18374;51.136;3.502;2022-08-03T00:53:26;20.30;99.90
31799;DHT22;18374;51.136;3.502;2022-08-03T00:55:54;20.30;99.90
31799;DHT22;18374;51.136;3.502;2022-08-03T00:58:22;20.20;99.90
31799;DHT22;18374;51.136;3.502;2022-08-03T01:00:50;20.20;99.90
31799;DHT22;18374;51.136;3.502;2022-08-03T01:03:18;20.10;99.90
31799;DHT22;18374;51.136;3.502;2022-08-03T01:05:57;20.10;99.90
31799;DHT22;18374;51.136;3.502;2022-08-03T01:08:35;20.10;99.90
31799;DHT22;18374;51.136;3.502;2022-08-03T01:11:14;20.10;99.90
31799;DHT22;18374;51.136;3.502;2022-08-03T01:17:04;20.00;99.90
31799;DHT22;18374;51.136;3.502;2022-08-03T01:19:58;20.00;99.90
31799;DHT22;18374;51.136;3.502;2022-08-03T01:31:44;19.90;99.90
31799;DHT22;18374;51.136;3.502;2022-08-03T01:34:41;19.90;99.90
31799;DHT22;18374;51.136;3.502;2022-08-03T01:37:15;19.90;99.90
31799;DHT22;18374;51.136;3.502;2022-08-03T01:39:48;19.80;99.90
31799;DHT22;18374;51.136;3.502;2022-08-03T01:42:19;19.80;99.90
31799;DHT22;18374;51.136;3.502;2022-08-03T01:44:49;19.80;99.90
31799;DHT22;18374;51.136;3.502;2022-08-03T01:47:20;19.80;99.90
31799;DHT22;18374;51.136;3.502;2022-08-03T01:49:49;19.70;99.90
31799;DHT22;18374;51.136;3.502;2022-08-03T01:52:19;19.70;99.90
31799;DHT22;18374;51.136;3.502;2022-08-03T01:54:50;19.60;99.90
31799;DHT22;18374;51.136;3.502;2022-08-03T01:57:19;19.50;99.90
31799;DHT22;18374;51.136;3.502;2022-08-03T01:59:49;19.40;99.90
31799;DHT22;18374;51.136;3.502;2022-08-03T02:02:19;19.40;99.90
31799;DHT22;18374;51.136;3.502;2022-08-03T02:05:02;19.50;99.90
31799;DHT22;18374;51.136;3.502;2022-08-03T02:07:40;19.40;99.90
31799;DHT22;18374;51.136;3.502;2022-08-03T02:10:11;19.50;99.90
31799;DHT22;18374;51.136;3.502;2022-08-03T02:12:43;19.40;99.90
31799;DHT22;18374;51.136;3.502;2022-08-03T02:15:15;19.40;99.90
31799;DHT22;18374;51.136;3.502;2022-08-03T02:17:45;19.30;99.90
31799;DHT22;18374;51.136;3.502;2022-08-03T02:20:14;19.30;99.90
31799;DHT22;18374;51.136;3.502;2022-08-03T02:22:43;19.30;99.90
31799;DHT22;18374;51.136;3.502;2022-08-03T02:25:13;19.30;99.90
31799;DHT22;18374;51.136;3.502;2022-08-03T02:27:48;19.30;99.90
31799;DHT22;18374;51.136;3.502;2022-08-03T02:30:28;19.30;99.90
31799;DHT22;18374;51.136;3.502;2022-08-03T02:32:58;19.30;99.90
31799;DHT22;18374;51.136;3.502;2022-08-03T02:35:28;19.30;99.90
31799;DHT22;18374;51.136;3.502;2022-08-03T02:38:00;19.30;99.90
31799;DHT22;18374;51.136;3.502;2022-08-03T02:40:30;19.30;99.90
31799;DHT22;18374;51.136;3.502;2022-08-03T02:43:02;19.30;99.90
31799;DHT22;18374;51.136;3.502;2022-08-03T02:45:35;19.20;99.90
31799;DHT22;18374;51.136;3.502;2022-08-03T02:48:16;19.20;99.90
31799;DHT22;18374;51.136;3.502;2022-08-03T02:50:46;19.20;99.90
31799;DHT22;18374;51.136;3.502;2022-08-03T02:53:16;19.10;99.90
31799;DHT22;18374;51.136;3.502;2022-08-03T02:55:46;19.10;99.90
31799;DHT22;18374;51.136;3.502;2022-08-03T02:58:17;19.10;99.90
31799;DHT22;18374;51.136;3.502;2022-08-03T03:00:48;19.00;99.90
31799;DHT22;18374;51.136;3.502;2022-08-03T03:03:20;19.00;99.90
31799;DHT22;18374;51.136;3.502;2022-08-03T03:05:49;19.00;99.90
31799;DHT22;18374;51.136;3.502;2022-08-03T03:08:24;19.00;99.90
31799;DHT22;18374;51.136;3.502;2022-08-03T03:10:59;18.90;99.90
31799;DHT22;18374;51.136;3.502;2022-08-03T03:13:29;18.90;99.90
31799;DHT22;18374;51.136;3.502;2022-08-03T03:16:00;18.80;99.90
31799;DHT22;18374;51.136;3.502;2022-08-03T03:18:31;18.80;99.90
31799;DHT22;18374;51.136;3.502;2022-08-03T03:21:00;18.80;99.90
31799;DHT22;18374;51.136;3.502;2022-08-03T03:23:31;18.80;99.90
31799;DHT22;18374;51.136;3.502;2022-08-03T03:26:03;18.80;99.90
31799;DHT22;18374;51.136;3.502;2022-08-03T03:28:31;18.80;99.90
31799;DHT22;18374;51.136;3.502;2022-08-03T03:31:00;18.80;99.90
31799;DHT22;18374;51.136;3.502;2022-08-03T03:33:27;18.70;99.90
31799;DHT22;18374;51.136;3.502;2022-08-03T03:35:56;18.80;99.90
31799;DHT22;18374;51.136;3.502;2022-08-03T03:38:25;18.70;99.90
31799;DHT22;18374;51.136;3.502;2022-08-03T03:40:53;18.70;99.90
31799;DHT22;18374;51.136;3.502;2022-08-03T03:43:22;18.70;99.90
31799;DHT22;18374;51.136;3.502;2022-08-03T03:45:51;18.60;99.90
31799;DHT22;18374;51.136;3.502;2022-08-03T03:48:20;18.60;99.90
31799;DHT22;18374;51.136;3.502;2022-08-03T03:50:48;18.60;99.90
31799;DHT22;18374;51.136;3.502;2022-08-03T03:53:16;18.60;99.90
31799;DHT22;18374;51.136;3.502;2022-08-03T03:55:44;18.60;99.90
31799;DHT22;18374;51.136;3.502;2022-08-03T03:58:30;18.60;99.90
31799;DHT22;18374;51.136;3.502;2022-08-03T04:00:59;18.60;99.90
31799;DHT22;18374;51.136;3.502;2022-08-03T04:03:27;18.50;99.90
31799;DHT22;18374;51.136;3.502;2022-08-03T04:05:56;18.50;99.90
31799;DHT22;18374;51.136;3.502;2022-08-03T04:08:42;18.50;99.90
31799;DHT22;18374;51.136;3.502;2022-08-03T04:11:52;18.50;99.90
31799;DHT22;18374;51.136;3.502;2022-08-03T04:14:26;18.50;99.90
31799;DHT22;18374;51.136;3.502;2022-08-03T04:16:58;18.50;99.90
31799;DHT22;18374;51.136;3.502;2022-08-03T04:19:47;18.50;99.90
31799;DHT22;18374;51.136;3.502;2022-08-03T04:22:19;18.50;99.90
31799;DHT22;18374;51.136;3.502;2022-08-03T04:24:54;18.50;99.90
31799;DHT22;18374;51.136;3.502;2022-08-03T04:27:33;18.50;99.90
31799;DHT22;18374;51.136;3.502;2022-08-03T04:30:04;18.50;99.90
31799;DHT22;18374;51.136;3.502;2022-08-03T04:32:34;18.50;99.90
31799;DHT22;18374;51.136;3.502;2022-08-03T04:35:04;18.40;99.90
31799;DHT22;18374;51.136;3.502;2022-08-03T04:37:42;18.50;99.90
31799;DHT22;18374;51.136;3.502;2022-08-03T04:40:18;18.50;99.90
31799;DHT22;18374;51.136;3.502;2022-08-03T04:42:49;18.50;99.90
31799;DHT22;18374;51.136;3.502;2022-08-03T04:45:18;18.50;99.90
31799;DHT22;18374;51.136;3.502;2022-08-03T04:47:48;18.50;99.90
31799;DHT22;18374;51.136;3.502;2022-08-03T04:50:16;18.50;99.90
31799;DHT22;18374;51.136;3.502;2022-08-03T04:53:04;18.50;99.90
31799;DHT22;18374;51.136;3.502;2022-08-03T04:55:33;18.50;99.90
31799;DHT22;18374;51.136;3.502;2022-08-03T04:58:02;18.50;99.90
31799;DHT22;18374;51.136;3.502;2022-08-03T05:00:30;18.60;99.90
31799;DHT22;18374;51.136;3.502;2022-08-03T05:02:58;18.60;99.90
31799;DHT22;18374;51.136;3.502;2022-08-03T05:05:26;18.60;99.90
31799;DHT22;18374;51.136;3.502;2022-08-03T05:08:14;18.60;99.90
31799;DHT22;18374;51.136;3.502;2022-08-03T05:10:42;18.60;99.90
31799;DHT22;18374;51.136;3.502;2022-08-03T05:13:09;18.60;99.90
31799;DHT22;18374;51.136;3.502;2022-08-03T05:15:39;18.60;99.90
31799;DHT22;18374;51.136;3.502;2022-08-03T05:18:09;18.70;99.90
31799;DHT22;18374;51.136;3.502;2022-08-03T05:20:40;18.70;99.90
31799;DHT22;18374;51.136;3.502;2022-08-03T05:23:08;18.70;99.90
31799;DHT22;18374;51.136;3.502;2022-08-03T05:25:35;18.70;99.90
31799;DHT22;18374;51.136;3.502;2022-08-03T05:28:05;18.80;99.90
31799;DHT22;18374;51.136;3.502;2022-08-03T05:30:33;18.80;99.90
31799;DHT22;18374;51.136;3.502;2022-08-03T05:33:02;18.80;99.90
31799;DHT22;18374;51.136;3.502;2022-08-03T05:35:31;18.80;99.90
31799;DHT22;18374;51.136;3.502;2022-08-03T05:38:19;18.90;99.90
31799;DHT22;18374;51.136;3.502;2022-08-03T05:40:56;18.90;99.90
31799;DHT22;18374;51.136;3.502;2022-08-03T05:43:44;18.90;99.90
31799;DHT22;18374;51.136;3.502;2022-08-03T05:46:12;19.00;99.90
31799;DHT22;18374;51.136;3.502;2022-08-03T05:48:41;19.10;99.90
31799;DHT22;18374;51.136;3.502;2022-08-03T05:51:09;19.10;99.90
31799;DHT22;18374;51.136;3.502;2022-08-03T05:53:41;19.20;99.90
31799;DHT22;18374;51.136;3.502;2022-08-03T05:56:09;19.20;99.90
31799;DHT22;18374;51.136;3.502;2022-08-03T05:58:43;19.20;99.90
31799;DHT22;18374;51.136;3.502;2022-08-03T06:01:11;19.20;99.90
31799;DHT22;18374;51.136;3.502;2022-08-03T06:03:39;19.30;99.90
31799;DHT22;18374;51.136;3.502;2022-08-03T06:06:07;19.40;99.90
31799;DHT22;18374;51.136;3.502;2022-08-03T06:08:35;19.40;99.90
31799;DHT22;18374;51.136;3.502;2022-08-03T06:11:03;19.50;99.90
31799;DHT22;18374;51.136;3.502;2022-08-03T06:13:31;19.60;99.90
31799;DHT22;18374;51.136;3.502;2022-08-03T06:15:59;19.70;99.90
31799;DHT22;18374;51.136;3.502;2022-08-03T06:18:26;19.70;99.90
31799;DHT22;18374;51.136;3.502;2022-08-03T06:20:54;19.70;99.90
31799;DHT22;18374;51.136;3.502;2022-08-03T06:23:22;19.80;99.90
31799;DHT22;18374;51.136;3.502;2022-08-03T06:26:10;19.90;99.90
31799;DHT22;18374;51.136;3.502;2022-08-03T06:28:39;20.00;99.90
31799;DHT22;18374;51.136;3.502;2022-08-03T06:31:21;20.10;99.90
31799;DHT22;18374;51.136;3.502;2022-08-03T06:33:50;20.20;99.90
31799;DHT22;18374;51.136;3.502;2022-08-03T06:36:38;20.30;99.90
31799;DHT22;18374;51.136;3.502;2022-08-03T06:39:06;20.40;99.90
31799;DHT22;18374;51.136;3.502;2022-08-03T06:41:34;20.40;99.90
31799;DHT22;18374;51.136;3.502;2022-08-03T06:44:07;20.50;99.90
31799;DHT22;18374;51.136;3.502;2022-08-03T06:46:36;20.50;99.90
31799;DHT22;18374;51.136;3.502;2022-08-03T06:49:05;20.70;99.90
31799;DHT22;18374;51.136;3.502;2022-08-03T06:51:33;20.70;99.90
31799;DHT22;18374;51.136;3.502;2022-08-03T06:54:21;20.80;99.90
31799;DHT22;18374;51.136;3.502;2022-08-03T06:56:50;20.90;99.90
31799;DHT22;18374;51.136;3.502;2022-08-03T06:59:18;21.00;99.90
31799;DHT22;18374;51.136;3.502;2022-08-03T07:02:06;21.10;99.90
31799;DHT22;18374;51.136;3.502;2022-08-03T07:04:34;21.30;99.90
31799;DHT22;18374;51.136;3.502;2022-08-03T07:07:01;21.40;99.90
31799;DHT22;18374;51.136;3.502;2022-08-03T07:09:29;21.40;99.90
31799;DHT22;18374;51.136;3.502;2022-08-03T07:11:57;21.60;99.90
31799;DHT22;18374;51.136;3.502;2022-08-03T07:14:25;21.70;99.90
31799;DHT22;18374;51.136;3.502;2022-08-03T07:16:55;21.70;99.90
31799;DHT22;18374;51.136;3.502;2022-08-03T07:19:22;21.90;99.90
31799;DHT22;18374;51.136;3.502;2022-08-03T07:21:50;22.00;99.90
31799;DHT22;18374;51.136;3.502;2022-08-03T07:24:19;22.10;99.90
31799;DHT22;18374;51.136;3.502;2022-08-03T07:26:47;22.20;99.90
31799;DHT22;18374;51.136;3.502;2022-08-03T07:29:15;22.30;99.90
31799;DHT22;18374;51.136;3.502;2022-08-03T07:31:42;22.40;99.90
31799;DHT22;18374;51.136;3.502;2022-08-03T07:34:10;22.50;99.90
31799;DHT22;18374;51.136;3.502;2022-08-03T07:36:38;22.60;99.90
31799;DHT22;18374;51.136;3.502;2022-08-03T07:39:05;22.80;99.90
31799;DHT22;18374;51.136;3.502;2022-08-03T07:41:44;22.80;99.90
31799;DHT22;18374;51.136;3.502;2022-08-03T07:44:19;22.90;99.90
31799;DHT22;18374;51.136;3.502;2022-08-03T07:46:47;23.00;99.90
31799;DHT22;18374;51.136;3.502;2022-08-03T07:49:18;23.10;99.90
31799;DHT22;18374;51.136;3.502;2022-08-03T07:51:46;23.30;99.90
31799;DHT22;18374;51.136;3.502;2022-08-03T07:54:33;23.30;99.90
31799;DHT22;18374;51.136;3.502;2022-08-03T07:57:01;23.40;99.90
31799;DHT22;18374;51.136;3.502;2022-08-03T07:59:29;23.40;99.90
31799;DHT22;18374;51.136;3.502;2022-08-03T08:02:16;23.30;99.90
31799;DHT22;18374;51.136;3.502;2022-08-03T08:04:45;23.40;99.90
31799;DHT22;18374;51.136;3.502;2022-08-03T08:07:12;23.60;99.90
31799;DHT22;18374;51.136;3.502;2022-08-03T08:09:44;23.70;99.90
31799;DHT22;18374;51.136;3.502;2022-08-03T08:12:12;23.90;99.90
31799;DHT22;18374;51.136;3.502;2022-08-03T08:14:42;23.90;99.90
31799;DHT22;18374;51.136;3.502;2022-08-03T08:17:13;24.10;99.90
31799;DHT22;18374;51.136;3.502;2022-08-03T08:19:40;24.20;99.90
31799;DHT22;18374;51.136;3.502;2022-08-03T08:22:18;24.20;99.90
31799;DHT22;18374;51.136;3.502;2022-08-03T08:24:57;24.30;99.90
31799;DHT22;18374;51.136;3.502;2022-08-03T08:27:27;24.40;99.90
31799;DHT22;18374;51.136;3.502;2022-08-03T08:30:17;24.50;99.90
31799;DHT22;18374;51.136;3.502;2022-08-03T08:32:49;24.50;99.90
31799;DHT22;18374;51.136;3.502;2022-08-03T08:35:17;24.50;99.90
31799;DHT22;18374;51.136;3.502;2022-08-03T08:37:45;24.60;99.90
31799;DHT22;18374;51.136;3.502;2022-08-03T08:40:20;24.80;99.90
31799;DHT22;18374;51.136;3.502;2022-08-03T08:42:49;24.80;99.90
31799;DHT22;18374;51.136;3.502;2022-08-03T08:45:25;25.00;99.90
31799;DHT22;18374;51.136;3.502;2022-08-03T08:47:54;25.20;99.90
31799;DHT22;18374;51.136;3.502;2022-08-03T08:50:29;25.30;99.90
31799;DHT22;18374;51.136;3.502;2022-08-03T08:53:01;25.30;99.90
31799;DHT22;18374;51.136;3.502;2022-08-03T08:55:30;25.30;99.90
31799;DHT22;18374;51.136;3.502;2022-08-03T08:58:20;25.40;99.90
31799;DHT22;18374;51.136;3.502;2022-08-03T09:00:49;25.60;99.90
31799;DHT22;18374;51.136;3.502;2022-08-03T09:03:17;25.60;99.90
31799;DHT22;18374;51.136;3.502;2022-08-03T09:05:58;25.90;99.90
31799;DHT22;18374;51.136;3.502;2022-08-03T09:08:31;26.00;99.90
31799;DHT22;18374;51.136;3.502;2022-08-03T09:10:59;26.30;99.90
31799;DHT22;18374;51.136;3.502;2022-08-03T09:13:27;26.30;99.90
31799;DHT22;18374;51.136;3.502;2022-08-03T09:16:16;26.30;99.90
31799;DHT22;18374;51.136;3.502;2022-08-03T09:18:52;26.40;99.90
31799;DHT22;18374;51.136;3.502;2022-08-03T09:21:26;26.50;99.90
31799;DHT22;18374;51.136;3.502;2022-08-03T09:24:01;26.60;99.90
31799;DHT22;18374;51.136;3.502;2022-08-03T09:26:34;26.60;99.90
31799;DHT22;18374;51.136;3.502;2022-08-03T09:29:10;26.90;99.90
31799;DHT22;18374;51.136;3.502;2022-08-03T09:31:45;26.90;99.90
31799;DHT22;18374;51.136;3.502;2022-08-03T09:34:15;26.90;99.90
31799;DHT22;18374;51.136;3.502;2022-08-03T09:36:47;27.00;99.90
31799;DHT22;18374;51.136;3.502;2022-08-03T09:39:17;27.00;99.90
31799;DHT22;18374;51.136;3.502;2022-08-03T09:42:14;27.20;99.90
31799;DHT22;18374;51.136;3.502;2022-08-03T09:44:49;27.50;99.90
31799;DHT22;18374;51.136;3.502;2022-08-03T09:47:34;27.50;99.90
31799;DHT22;18374;51.136;3.502;2022-08-03T09:50:11;27.50;99.90
31799;DHT22;18374;51.136;3.502;2022-08-03T09:52:40;27.60;99.90
31799;DHT22;18374;51.136;3.502;2022-08-03T09:55:18;27.80;99.90
31799;DHT22;18374;51.136;3.502;2022-08-03T09:58:07;27.80;99.90
31799;DHT22;18374;51.136;3.502;2022-08-03T10:01:03;27.80;99.90
31799;DHT22;18374;51.136;3.502;2022-08-03T10:03:34;28.00;99.90
31799;DHT22;18374;51.136;3.502;2022-08-03T10:06:23;28.10;99.90
31799;DHT22;18374;51.136;3.502;2022-08-03T10:09:12;28.10;99.90
31799;DHT22;18374;51.136;3.502;2022-08-03T10:11:41;28.20;99.90
31799;DHT22;18374;51.136;3.502;2022-08-03T10:14:11;28.30;99.80
31799;DHT22;18374;51.136;3.502;2022-08-03T10:16:47;28.40;99.60
31799;DHT22;18374;51.136;3.502;2022-08-03T10:19:16;28.50;99.30
31799;DHT22;18374;51.136;3.502;2022-08-03T10:21:49;28.60;99.50
31799;DHT22;18374;51.136;3.502;2022-08-03T10:24:25;28.80;99.30
31799;DHT22;18374;51.136;3.502;2022-08-03T10:27:02;28.70;98.20
31799;DHT22;18374;51.136;3.502;2022-08-03T10:29:38;28.60;98.80
31799;DHT22;18374;51.136;3.502;2022-08-03T10:32:17;28.60;99.00
31799;DHT22;18374;51.136;3.502;2022-08-03T10:34:50;28.80;99.10
31799;DHT22;18374;51.136;3.502;2022-08-03T10:37:29;28.80;98.60
31799;DHT22;18374;51.136;3.502;2022-08-03T10:39:59;29.10;98.50
31799;DHT22;18374;51.136;3.502;2022-08-03T10:42:29;29.30;98.40
31799;DHT22;18374;51.136;3.502;2022-08-03T10:45:06;29.40;97.60
31799;DHT22;18374;51.136;3.502;2022-08-03T10:47:37;29.60;97.30
31799;DHT22;18374;51.136;3.502;2022-08-03T10:50:07;29.70;97.00
31799;DHT22;18374;51.136;3.502;2022-08-03T10:52:55;29.80;97.10
31799;DHT22;18374;51.136;3.502;2022-08-03T11:01:49;30.20;96.40
31799;DHT22;18374;51.136;3.502;2022-08-03T11:04:28;30.40;96.10
31799;DHT22;18374;51.136;3.502;2022-08-03T11:09:45;30.50;95.70
31799;DHT22;18374;51.136;3.502;2022-08-03T11:12:29;30.50;95.40
31799;DHT22;18374;51.136;3.502;2022-08-03T11:15:06;30.60;95.10
31799;DHT22;18374;51.136;3.502;2022-08-03T11:17:35;30.70;95.20
31799;DHT22;18374;51.136;3.502;2022-08-03T11:21:15;30.80;94.10
31799;DHT22;18374;51.136;3.502;2022-08-03T11:23:43;30.90;94.20
31799;DHT22;18374;51.136;3.502;2022-08-03T11:26:32;30.60;93.90
31799;DHT22;18374;51.136;3.502;2022-08-03T11:29:30;30.70;94.70
31799;DHT22;18374;51.136;3.502;2022-08-03T11:31:58;30.80;94.60
31799;DHT22;18374;51.136;3.502;2022-08-03T11:34:25;31.00;93.90
31799;DHT22;18374;51.136;3.502;2022-08-03T11:37:17;31.00;94.10
31799;DHT22;18374;51.136;3.502;2022-08-03T11:39:48;31.20;93.70
31799;DHT22;18374;51.136;3.502;2022-08-03T11:44:53;31.10;93.80
31799;DHT22;18374;51.136;3.502;2022-08-03T11:47:24;31.20;94.00
31799;DHT22;18374;51.136;3.502;2022-08-03T11:49:57;31.40;93.30
31799;DHT22;18374;51.136;3.502;2022-08-03T11:52:37;31.60;92.70
31799;DHT22;18374;51.136;3.502;2022-08-03T11:55:10;31.60;92.50
31799;DHT22;18374;51.136;3.502;2022-08-03T11:57:39;31.60;92.60
31799;DHT22;18374;51.136;3.502;2022-08-03T12:00:31;31.70;92.10
31799;DHT22;18374;51.136;3.502;2022-08-03T12:03:08;31.50;92.30
31799;DHT22;18374;51.136;3.502;2022-08-03T12:05:56;31.60;92.00
31799;DHT22;18374;51.136;3.502;2022-08-03T12:10:56;31.60;92.30
31799;DHT22;18374;51.136;3.502;2022-08-03T12:13:26;31.60;91.40
31799;DHT22;18374;51.136;3.502;2022-08-03T12:16:23;31.70;91.70
31799;DHT22;18374;51.136;3.502;2022-08-03T12:21:23;32.00;91.50
31799;DHT22;18374;51.136;3.502;2022-08-03T12:23:59;32.10;91.20
31799;DHT22;18374;51.136;3.502;2022-08-03T12:26:29;32.20;91.20
31799;DHT22;18374;51.136;3.502;2022-08-03T12:28:58;32.30;90.80
31799;DHT22;18374;51.136;3.502;2022-08-03T12:31:26;32.30;91.20
31799;DHT22;18374;51.136;3.502;2022-08-03T12:34:04;32.40;90.60
31799;DHT22;18374;51.136;3.502;2022-08-03T12:36:35;32.30;90.40
31799;DHT22;18374;51.136;3.502;2022-08-03T12:39:07;32.10;91.00
31799;DHT22;18374;51.136;3.502;2022-08-03T12:41:38;32.10;91.30
31799;DHT22;18374;51.136;3.502;2022-08-03T12:44:08;32.20;90.20
31799;DHT22;18374;51.136;3.502;2022-08-03T12:46:38;32.20;90.70
31799;DHT22;18374;51.136;3.502;2022-08-03T12:49:15;32.10;90.50
31799;DHT22;18374;51.136;3.502;2022-08-03T12:54:21;32.30;90.60
31799;DHT22;18374;51.136;3.502;2022-08-03T12:57:06;32.30;90.10
31799;DHT22;18374;51.136;3.502;2022-08-03T12:59:42;32.30;90.10
31799;DHT22;18374;51.136;3.502;2022-08-03T13:02:20;32.30;90.40
31799;DHT22;18374;51.136;3.502;2022-08-03T13:04:52;32.20;90.00
31799;DHT22;18374;51.136;3.502;2022-08-03T13:07:21;31.90;89.50
31799;DHT22;18374;51.136;3.502;2022-08-03T13:09:51;31.70;90.50
31799;DHT22;18374;51.136;3.502;2022-08-03T13:12:22;31.50;89.70
31799;DHT22;18374;51.136;3.502;2022-08-03T13:14:56;31.40;91.10
31799;DHT22;18374;51.136;3.502;2022-08-03T13:17:25;31.60;90.90
31799;DHT22;18374;51.136;3.502;2022-08-03T13:19:54;31.40;90.80
31799;DHT22;18374;51.136;3.502;2022-08-03T13:22:24;31.30;90.50
31799;DHT22;18374;51.136;3.502;2022-08-03T13:24:55;31.20;90.70
31799;DHT22;18374;51.136;3.502;2022-08-03T13:27:24;31.30;90.60
31799;DHT22;18374;51.136;3.502;2022-08-03T13:30:14;31.30;90.70
31799;DHT22;18374;51.136;3.502;2022-08-03T13:32:56;31.50;90.50
31799;DHT22;18374;51.136;3.502;2022-08-03T13:35:25;31.60;89.70
31799;DHT22;18374;51.136;3.502;2022-08-03T13:37:52;31.90;90.50
31799;DHT22;18374;51.136;3.502;2022-08-03T13:40:20;32.00;87.90
31799;DHT22;18374;51.136;3.502;2022-08-03T13:42:56;32.10;87.80
31799;DHT22;18374;51.136;3.502;2022-08-03T13:45:24;32.30;87.50
31799;DHT22;18374;51.136;3.502;2022-08-03T13:47:53;32.30;86.80
31799;DHT22;18374;51.136;3.502;2022-08-03T13:50:21;32.40;86.50
31799;DHT22;18374;51.136;3.502;2022-08-03T13:52:49;32.30;87.40
31799;DHT22;18374;51.136;3.502;2022-08-03T13:55:16;32.40;86.90
31799;DHT22;18374;51.136;3.502;2022-08-03T13:57:44;32.50;85.80
31799;DHT22;18374;51.136;3.502;2022-08-03T14:00:32;32.50;84.70
31799;DHT22;18374;51.136;3.502;2022-08-03T14:03:01;32.50;86.00
31799;DHT22;18374;51.136;3.502;2022-08-03T14:05:40;32.60;85.10
31799;DHT22;18374;51.136;3.502;2022-08-03T14:08:09;32.70;84.10
31799;DHT22;18374;51.136;3.502;2022-08-03T14:10:39;32.70;83.70
31799;DHT22;18374;51.136;3.502;2022-08-03T14:13:10;32.60;83.20
31799;DHT22;18374;51.136;3.502;2022-08-03T14:15:45;32.50;83.60
31799;DHT22;18374;51.136;3.502;2022-08-03T14:18:18;32.30;84.00
31799;DHT22;18374;51.136;3.502;2022-08-03T14:21:01;32.10;83.70
31799;DHT22;18374;51.136;3.502;2022-08-03T14:23:34;31.90;85.20
31799;DHT22;18374;51.136;3.502;2022-08-03T14:26:05;31.90;85.30
31799;DHT22;18374;51.136;3.502;2022-08-03T14:28:33;31.90;84.60
31799;DHT22;18374;51.136;3.502;2022-08-03T14:31:02;32.00;85.70
31799;DHT22;18374;51.136;3.502;2022-08-03T14:33:34;32.10;84.80
31799;DHT22;18374;51.136;3.502;2022-08-03T14:36:03;32.30;84.50
31799;DHT22;18374;51.136;3.502;2022-08-03T14:38:31;32.30;82.60
31799;DHT22;18374;51.136;3.502;2022-08-03T14:40:58;32.10;83.10
31799;DHT22;18374;51.136;3.502;2022-08-03T14:43:26;32.10;83.20
31799;DHT22;18374;51.136;3.502;2022-08-03T14:46:00;32.10;84.40
31799;DHT22;18374;51.136;3.502;2022-08-03T14:48:28;32.20;84.40
31799;DHT22;18374;51.136;3.502;2022-08-03T14:51:15;32.40;84.00
31799;DHT22;18374;51.136;3.502;2022-08-03T14:53:43;32.60;82.50
31799;DHT22;18374;51.136;3.502;2022-08-03T14:56:12;32.50;81.10
31799;DHT22;18374;51.136;3.502;2022-08-03T14:58:40;32.30;81.50
31799;DHT22;18374;51.136;3.502;2022-08-03T15:01:07;32.10;82.10
31799;DHT22;18374;51.136;3.502;2022-08-03T15:03:55;31.90;83.30
31799;DHT22;18374;51.136;3.502;2022-08-03T15:06:23;31.80;83.10
31799;DHT22;18374;51.136;3.502;2022-08-03T15:08:50;31.80;83.80
31799;DHT22;18374;51.136;3.502;2022-08-03T15:11:38;31.90;83.30
31799;DHT22;18374;51.136;3.502;2022-08-03T15:14:06;32.00;82.10
31799;DHT22;18374;51.136;3.502;2022-08-03T15:16:36;32.00;82.90
31799;DHT22;18374;51.136;3.502;2022-08-03T15:19:04;32.10;83.50
31799;DHT22;18374;51.136;3.502;2022-08-03T15:21:52;32.10;82.10
31799;DHT22;18374;51.136;3.502;2022-08-03T15:24:20;32.10;81.90
31799;DHT22;18374;51.136;3.502;2022-08-03T15:26:49;31.90;81.40
31799;DHT22;18374;51.136;3.502;2022-08-03T15:29:18;31.90;82.80
31799;DHT22;18374;51.136;3.502;2022-08-03T15:32:06;31.90;82.70
31799;DHT22;18374;51.136;3.502;2022-08-03T15:34:35;31.90;82.90
31799;DHT22;18374;51.136;3.502;2022-08-03T15:37:04;31.90;83.70
31799;DHT22;18374;51.136;3.502;2022-08-03T15:39:43;32.00;82.30
31799;DHT22;18374;51.136;3.502;2022-08-03T15:42:28;32.00;82.20
31799;DHT22;18374;51.136;3.502;2022-08-03T15:44:56;32.00;81.80
31799;DHT22;18374;51.136;3.502;2022-08-03T15:47:24;31.90;88.40
31799;DHT22;18374;51.136;3.502;2022-08-03T15:49:52;31.50;90.60
31799;DHT22;18374;51.136;3.502;2022-08-03T15:52:20;31.20;91.70
31799;DHT22;18374;51.136;3.502;2022-08-03T15:54:48;31.20;92.00
31799;DHT22;18374;51.136;3.502;2022-08-03T15:57:15;31.00;92.00
31799;DHT22;18374;51.136;3.502;2022-08-03T15:59:43;30.90;92.10
31799;DHT22;18374;51.136;3.502;2022-08-03T16:02:11;30.90;92.20
31799;DHT22;18374;51.136;3.502;2022-08-03T16:04:38;30.60;93.00
31799;DHT22;18374;51.136;3.502;2022-08-03T16:07:06;30.60;93.30
31799;DHT22;18374;51.136;3.502;2022-08-03T16:09:39;30.50;93.20
31799;DHT22;18374;51.136;3.502;2022-08-03T16:12:10;30.30;93.10
31799;DHT22;18374;51.136;3.502;2022-08-03T16:14:43;30.20;93.70
31799;DHT22;18374;51.136;3.502;2022-08-03T16:17:20;30.10;93.90
31799;DHT22;18374;51.136;3.502;2022-08-03T16:19:49;30.20;94.30
31799;DHT22;18374;51.136;3.502;2022-08-03T16:22:22;30.10;94.30
31799;DHT22;18374;51.136;3.502;2022-08-03T16:24:52;30.10;94.60
31799;DHT22;18374;51.136;3.502;2022-08-03T16:27:21;30.10;94.80
31799;DHT22;18374;51.136;3.502;2022-08-03T16:30:13;29.90;94.50
31799;DHT22;18374;51.136;3.502;2022-08-03T16:32:43;29.80;95.00
31799;DHT22;18374;51.136;3.502;2022-08-03T16:35:12;29.70;95.00
31799;DHT22;18374;51.136;3.502;2022-08-03T16:37:46;29.70;95.30